This is the latest recevied weather packets stored in our database for station/object AG1T-20. If no packets are shown the sender has not sent any weather packets the latest 10 day(s).
| Time | Temp. | Humidity | Pressure | Rain* | Wind** | Luminosity | Snow |
|---|---|---|---|---|---|---|---|
| 1777899605 | 4.44° C | 73% | 1013.5 hPa | 0 mm | - | 26 W/m² | - |
| 1777899004 | 5° C | 72% | 1013 hPa | 0 mm | - | 20 W/m² | - |
| 1777898405 | 3.89° C | 73% | 1013 hPa | 0 mm | - | 15 W/m² | - |
| 1777897804 | 3.89° C | 77% | 1013 hPa | 0 mm | - | 10 W/m² | - |
| 1777897204 | 3.89° C | 74% | 1013 hPa | 0 mm | - | 5 W/m² | - |
| 1777896604 | 5° C | 71% | 1013 hPa | 0 mm | - | 1 W/m² | - |
| 1777896004 | 4.44° C | 73% | 1013 hPa | 0 mm | - | 0 W/m² | - |
| 1777895404 | 4.44° C | 73% | 1013.2 hPa | 0 mm | - | 0 W/m² | - |
| 1777894805 | 4.44° C | 72% | 1013.2 hPa | 0 mm | - | 0 W/m² | - |
| 1777894204 | 5° C | 69% | 1013.2 hPa | 0 mm | - | 0 W/m² | - |
| 1777893605 | 5° C | 68% | 1013.2 hPa | 0 mm | - | 0 W/m² | - |
| 1777893004 | 5.56° C | 69% | 1013.2 hPa | 0 mm | - | 0 W/m² | - |
| 1777892405 | 5° C | 71% | 1013.2 hPa | 0 mm | - | 0 W/m² | - |
| 1777891805 | 4.44° C | 76% | 1012.8 hPa | 0 mm | - | 0 W/m² | - |
| 1777891205 | 4.44° C | 74% | 1012.8 hPa | 0 mm | - | 0 W/m² | - |
| 1777890604 | 5.56° C | 69% | 1012.8 hPa | 0 mm | - | 0 W/m² | - |
| 1777890005 | 6.11° C | 67% | 1012.8 hPa | 0 mm | - | 0 W/m² | - |
| 1777889404 | 6.11° C | 64% | 1012.8 hPa | 0 mm | - | 0 W/m² | - |
| 1777888804 | 5.56° C | 67% | 1012.8 hPa | 0 mm | - | 0 W/m² | - |
| 1777888204 | 5.56° C | 67% | 1012.6 hPa | 0 mm | - | 0 W/m² | - |
| 1777887605 | 5.56° C | 66% | 1012.6 hPa | 0 mm | - | 0 W/m² | - |
| 1777887005 | 5.56° C | 65% | 1012.6 hPa | 0 mm | - | 0 W/m² | - |
| 1777886404 | 5.56° C | 65% | 1012.6 hPa | 0 mm | - | 0 W/m² | - |
| 1777885805 | 6.11° C | 62% | 1012.6 hPa | 0 mm | - | 0 W/m² | - |
| 1777885205 | 6.11° C | 61% | 1012.6 hPa | 0 mm | - | 0 W/m² | - |
* Rain latest hour (hover to see other rain measurements)
** Current wind speed in m/s (hover to see current wind gust speed)